createdAt,value
2018-06-13T00:00:49.151Z,3.03
2018-06-13T00:03:18.303Z,3.20
2018-06-13T00:05:47.515Z,3.10
2018-06-13T00:08:16.350Z,3.80
2018-06-13T00:10:45.427Z,3.80
2018-06-13T00:13:14.892Z,3.20
2018-06-13T00:15:44.381Z,3.60
2018-06-13T00:18:13.232Z,3.60
2018-06-13T00:20:42.772Z,3.00
2018-06-13T00:23:12.090Z,3.97
2018-06-13T00:25:41.332Z,2.90
2018-06-13T00:28:10.676Z,3.00
2018-06-13T00:30:39.896Z,2.83
2018-06-13T00:33:08.686Z,3.40
2018-06-13T00:35:37.676Z,2.57
2018-06-13T00:38:07.025Z,3.33
2018-06-13T00:40:36.231Z,3.00
2018-06-13T00:43:05.698Z,3.33
2018-06-13T00:45:35.150Z,2.70
2018-06-13T00:48:04.231Z,2.87
2018-06-13T00:50:33.088Z,2.40
2018-06-13T00:53:02.315Z,2.60
2018-06-13T00:55:31.977Z,3.17
2018-06-13T00:58:01.168Z,1.80
2018-06-13T01:00:30.003Z,1.80
2018-06-13T01:02:58.823Z,2.10
2018-06-13T01:05:27.883Z,2.00
2018-06-13T01:07:57.082Z,1.97
2018-06-13T01:10:26.561Z,2.27
2018-06-13T01:12:55.645Z,2.23
2018-06-13T01:15:25.123Z,1.83
2018-06-13T01:17:54.547Z,2.77
2018-06-13T01:20:23.344Z,1.80
2018-06-13T01:22:52.533Z,2.70
2018-06-13T01:25:21.367Z,1.90
2018-06-13T01:27:50.549Z,2.03
2018-06-13T01:30:19.413Z,1.87
2018-06-13T01:32:48.497Z,3.13
2018-06-13T01:35:17.356Z,2.70
2018-06-13T01:37:46.435Z,2.67
2018-06-13T01:40:15.588Z,4.10
2018-06-13T01:42:44.412Z,2.87
2018-06-13T01:45:13.899Z,2.50
2018-06-13T01:47:43.132Z,3.03
2018-06-13T01:50:12.561Z,2.77
2018-06-13T01:52:41.381Z,2.40
2018-06-13T01:55:10.188Z,2.70
2018-06-13T01:57:39.025Z,2.40
2018-06-13T02:00:08.104Z,2.10
2018-06-13T02:02:37.369Z,2.70
2018-06-13T02:05:06.152Z,2.63
2018-06-13T02:07:34.991Z,2.90
2018-06-13T02:10:03.899Z,2.37
2018-06-13T02:12:33.620Z,3.40
2018-06-13T02:15:02.445Z,2.60
2018-06-13T02:17:31.738Z,3.27
2018-06-13T02:20:00.899Z,2.80
2018-06-13T02:22:30.249Z,2.80
2018-06-13T02:24:59.499Z,2.93
2018-06-13T02:27:28.594Z,2.33
2018-06-13T02:29:57.914Z,2.40
2018-06-13T02:32:26.803Z,3.03
2018-06-13T02:34:56.185Z,2.67
2018-06-13T02:37:25.419Z,3.30
2018-06-13T02:39:54.625Z,2.20
2018-06-13T02:42:24.031Z,2.83
2018-06-13T02:44:53.395Z,5.63
2018-06-13T02:47:22.729Z,3.13
2018-06-13T02:49:51.533Z,2.80
2018-06-13T02:52:20.352Z,3.70
2018-06-13T02:54:50.113Z,2.50
2018-06-13T02:57:19.284Z,3.00
2018-06-13T02:59:48.679Z,2.70
2018-06-13T03:02:18.116Z,2.67
2018-06-13T03:04:47.487Z,3.30
2018-06-13T03:07:17.127Z,3.17
2018-06-13T03:09:46.242Z,2.73
2018-06-13T03:12:15.889Z,2.90
2018-06-13T03:14:44.876Z,3.40
2018-06-13T03:17:13.641Z,3.20
2018-06-13T03:19:42.582Z,2.50
2018-06-13T03:22:12.370Z,3.10
2018-06-13T03:24:41.797Z,2.97
2018-06-13T03:27:10.955Z,3.20
2018-06-13T03:29:40.018Z,5.20
2018-06-13T03:32:09.430Z,3.13
2018-06-13T03:34:39.009Z,3.10
2018-06-13T03:37:08.094Z,2.53
2018-06-13T03:39:37.800Z,3.47
2018-06-13T03:42:06.911Z,4.10
2018-06-13T03:44:35.792Z,2.77
2018-06-13T03:47:04.838Z,2.47
2018-06-13T03:49:33.977Z,2.40
2018-06-13T03:52:03.157Z,3.47
2018-06-13T03:54:31.934Z,2.37
2018-06-13T03:57:00.763Z,2.47
2018-06-13T03:59:29.983Z,2.27
2018-06-13T04:02:20.412Z,4.50
2018-06-13T04:04:49.524Z,2.70
2018-06-13T04:07:18.405Z,2.80
2018-06-13T04:09:47.181Z,2.33
2018-06-13T04:12:16.043Z,2.80
2018-06-13T04:14:44.865Z,2.30
2018-06-13T04:17:14.553Z,2.80
2018-06-13T04:19:43.814Z,3.00
2018-06-13T04:22:13.227Z,2.57
2018-06-13T04:24:42.320Z,3.20
2018-06-13T04:27:11.391Z,2.80
2018-06-13T04:29:40.245Z,2.27
2018-06-13T04:32:09.074Z,2.50
2018-06-13T04:34:38.103Z,2.30
2018-06-13T04:37:07.584Z,2.33
2018-06-13T04:39:37.109Z,2.80
2018-06-13T04:42:05.857Z,2.10
2018-06-13T04:44:35.192Z,2.03
2018-06-13T04:47:03.982Z,2.20
2018-06-13T04:49:33.120Z,3.70
2018-06-13T04:52:02.967Z,2.47
2018-06-13T04:54:32.397Z,2.57
2018-06-13T04:57:01.494Z,2.67
2018-06-13T04:59:30.505Z,2.77
2018-06-13T05:01:59.272Z,2.00
2018-06-13T05:04:28.052Z,2.87
2018-06-13T05:06:56.883Z,2.20
2018-06-13T05:09:25.739Z,2.33
2018-06-13T05:11:55.109Z,2.30
2018-06-13T05:14:24.569Z,2.63
2018-06-13T05:16:53.363Z,2.40
2018-06-13T05:19:22.940Z,1.80
2018-06-13T05:21:52.348Z,2.20
2018-06-13T05:24:21.705Z,2.00
2018-06-13T05:26:51.047Z,1.73
2018-06-13T05:29:20.684Z,1.80
2018-06-13T05:31:49.593Z,1.60
2018-06-13T05:34:18.421Z,2.43
2018-06-13T05:36:47.706Z,1.97
2018-06-13T05:39:17.399Z,1.80
2018-06-13T05:41:47.072Z,2.10
2018-06-13T05:44:16.185Z,2.27
2018-06-13T05:46:45.249Z,1.70
2018-06-13T05:49:14.455Z,1.80
2018-06-13T05:51:43.691Z,2.47
2018-06-13T05:54:12.555Z,2.80
2018-06-13T05:56:41.831Z,1.90
2018-06-13T05:59:10.939Z,1.63
2018-06-13T06:01:40.243Z,1.67
2018-06-13T06:04:09.426Z,2.33
2018-06-13T06:06:38.719Z,1.73
2018-06-13T06:09:09.768Z,1.10
2018-06-13T06:11:38.935Z,1.90
2018-06-13T06:14:08.515Z,2.10
2018-06-13T06:16:37.334Z,2.90
2018-06-13T06:19:07.212Z,2.23
2018-06-13T06:21:36.037Z,1.60
2018-06-13T06:24:04.831Z,2.63
2018-06-13T06:26:34.119Z,1.50
2018-06-13T06:29:03.228Z,2.20
2018-06-13T06:31:32.706Z,1.60
2018-06-13T06:34:01.671Z,3.20
2018-06-13T06:36:30.521Z,2.00
2018-06-13T06:38:59.452Z,2.17
2018-06-13T06:41:28.595Z,1.50
2018-06-13T06:43:57.765Z,2.17
2018-06-13T06:46:27.295Z,1.43
2018-06-13T06:48:56.957Z,2.40
2018-06-13T06:51:26.063Z,2.17
2018-06-13T06:53:55.198Z,1.60
2018-06-13T06:56:24.601Z,1.40
2018-06-13T06:58:53.693Z,2.60
2018-06-13T07:01:23.301Z,1.80
2018-06-13T07:03:52.711Z,1.70
2018-06-13T07:06:21.797Z,1.73
2018-06-13T07:08:51.052Z,2.00
2018-06-13T07:11:20.407Z,1.83
2018-06-13T07:13:49.807Z,1.47
2018-06-13T07:16:18.609Z,1.43
2018-06-13T07:18:47.639Z,2.77
2018-06-13T07:21:16.470Z,2.03
2018-06-13T07:23:45.788Z,1.37
2018-06-13T07:26:15.225Z,2.60
2018-06-13T07:28:44.744Z,2.63
2018-06-13T07:31:13.956Z,2.30
2018-06-13T07:33:42.985Z,1.87
2018-06-13T07:36:11.767Z,1.97
2018-06-13T07:38:43.366Z,1.50
2018-06-13T07:41:12.358Z,1.23
2018-06-13T07:43:41.592Z,2.23
2018-06-13T07:46:10.622Z,1.80
2018-06-13T07:48:39.793Z,1.80
2018-06-13T07:51:08.909Z,2.20
2018-06-13T07:53:38.044Z,1.77
2018-06-13T07:56:06.892Z,3.47
2018-06-13T07:58:35.801Z,1.40
2018-06-13T08:01:04.676Z,2.10
2018-06-13T08:03:33.505Z,1.77
2018-06-13T08:06:02.655Z,1.60
2018-06-13T08:08:31.620Z,2.50
2018-06-13T08:11:01.172Z,1.80
2018-06-13T08:13:30.630Z,1.50
2018-06-13T08:15:59.992Z,1.70
2018-06-13T08:18:29.092Z,2.00
2018-06-13T08:20:58.898Z,1.83
2018-06-13T08:23:28.439Z,1.73
2018-06-13T08:25:57.574Z,1.67
2018-06-13T08:28:26.420Z,1.27
2018-06-13T08:30:56.120Z,1.20
2018-06-13T08:33:24.884Z,1.70
2018-06-13T08:35:53.972Z,1.40
2018-06-13T08:38:22.927Z,1.67
2018-06-13T08:40:52.351Z,2.30
2018-06-13T08:43:21.400Z,1.97
2018-06-13T08:45:50.566Z,1.83
2018-06-13T08:48:19.972Z,2.23
2018-06-13T08:50:48.781Z,1.30
2018-06-13T08:53:18.411Z,1.50
2018-06-13T08:55:47.892Z,1.30
2018-06-13T08:58:17.428Z,1.40
2018-06-13T09:00:47.205Z,1.50
2018-06-13T09:03:16.270Z,1.50
2018-06-13T09:11:06.065Z,1.30
2018-06-13T09:13:35.025Z,1.40
2018-06-13T09:16:04.239Z,2.00
2018-06-13T09:18:33.714Z,1.67
2018-06-13T09:21:03.291Z,1.30
2018-06-13T09:23:32.465Z,1.60
2018-06-13T09:26:01.296Z,1.33
2018-06-13T09:28:30.485Z,1.60
2018-06-13T09:31:00.047Z,0.97
2018-06-13T09:33:29.317Z,3.07
2018-06-13T09:35:58.600Z,1.90
2018-06-13T09:38:28.364Z,1.83
2018-06-13T09:40:57.337Z,1.60
2018-06-13T09:43:27.474Z,1.20
2018-06-13T09:46:03.397Z,1.37
2018-06-13T09:48:26.466Z,2.57
2018-06-13T09:50:55.332Z,2.03
2018-06-13T09:53:24.618Z,1.20
2018-06-13T09:55:54.050Z,1.57
2018-06-13T09:58:23.123Z,1.93
2018-06-13T10:00:57.252Z,1.27
2018-06-13T10:03:26.353Z,1.60
2018-06-13T10:05:55.495Z,1.57
2018-06-13T10:08:24.572Z,1.47
2018-06-13T10:10:54.360Z,1.10
2018-06-13T10:13:23.445Z,2.07
2018-06-13T10:15:52.465Z,1.20
2018-06-13T10:18:21.633Z,1.90
2018-06-13T10:20:50.816Z,1.40
2018-06-13T10:23:19.728Z,1.43
2018-06-13T10:25:49.584Z,1.33
2018-06-13T10:28:18.540Z,1.23
2018-06-13T10:30:48.135Z,1.80
2018-06-13T10:33:17.222Z,0.90
2018-06-13T10:35:46.405Z,1.57
2018-06-13T10:38:15.775Z,1.83
2018-06-13T10:40:44.736Z,1.30
2018-06-13T10:43:13.967Z,1.30
2018-06-13T10:45:42.852Z,1.97
2018-06-13T10:48:12.046Z,1.63
2018-06-13T10:50:41.612Z,1.10
2018-06-13T10:53:10.924Z,1.73
2018-06-13T10:55:40.094Z,1.20
2018-06-13T10:58:09.574Z,1.10
2018-06-13T11:00:38.482Z,1.07
2018-06-13T11:03:07.654Z,1.20
2018-06-13T11:05:36.893Z,1.43
2018-06-13T11:08:05.808Z,1.23
2018-06-13T11:10:34.644Z,1.20
2018-06-13T11:13:05.944Z,1.23
2018-06-13T11:15:34.960Z,1.20
2018-06-13T11:18:04.802Z,1.10
2018-06-13T11:20:34.135Z,0.90
2018-06-13T11:23:03.082Z,1.07
2018-06-13T11:25:32.672Z,1.13
2018-06-13T11:28:01.851Z,1.60
2018-06-13T11:30:30.938Z,0.93
2018-06-13T11:33:00.204Z,1.23
2018-06-13T11:35:29.948Z,1.67
2018-06-13T11:37:59.371Z,1.57
2018-06-13T11:40:28.491Z,1.70
2018-06-13T11:42:58.264Z,2.10
2018-06-13T11:45:27.155Z,1.83
2018-06-13T11:47:56.897Z,1.87
2018-06-13T11:50:26.030Z,1.57
2018-06-13T11:52:55.292Z,2.00
2018-06-13T11:55:24.978Z,1.87
2018-06-13T11:57:53.823Z,1.63
2018-06-13T12:00:22.994Z,2.00
2018-06-13T12:02:52.468Z,1.53
2018-06-13T12:05:21.929Z,1.33
2018-06-13T12:07:51.488Z,1.37
2018-06-13T12:10:20.631Z,1.20
2018-06-13T12:12:49.481Z,2.07
2018-06-13T12:15:18.694Z,1.60
2018-06-13T12:17:47.508Z,1.10
2018-06-13T12:20:16.699Z,1.40
2018-06-13T12:22:46.457Z,1.63
2018-06-13T12:25:15.572Z,1.17
2018-06-13T12:27:44.420Z,1.83
2018-06-13T12:30:13.790Z,1.00
2018-06-13T12:32:43.617Z,1.43
2018-06-13T12:35:12.729Z,1.77
2018-06-13T12:37:41.801Z,0.83
2018-06-13T12:40:10.987Z,0.97
2018-06-13T12:42:40.110Z,0.90
2018-06-13T12:45:09.353Z,1.40
2018-06-13T12:47:38.172Z,1.00
2018-06-13T12:50:07.074Z,1.37
2018-06-13T12:52:35.982Z,2.60
2018-06-13T12:55:05.328Z,1.30
2018-06-13T12:57:34.305Z,1.57
2018-06-13T13:00:03.604Z,1.57
2018-06-13T13:02:32.774Z,1.50
2018-06-13T13:05:01.841Z,1.13
2018-06-13T13:07:30.822Z,1.33
2018-06-13T13:10:00.232Z,1.10
2018-06-13T13:12:29.518Z,1.53
2018-06-13T13:14:58.974Z,1.80
2018-06-13T13:17:28.333Z,0.90
2018-06-13T13:19:57.202Z,1.40
2018-06-13T13:22:26.344Z,1.47
2018-06-13T13:24:55.751Z,1.40
2018-06-13T13:27:25.227Z,1.30
2018-06-13T13:29:54.599Z,1.70
2018-06-13T13:32:23.746Z,1.20
2018-06-13T13:34:52.891Z,1.30
2018-06-13T13:37:22.220Z,1.30
2018-06-13T13:39:51.053Z,1.57
2018-06-13T13:42:19.912Z,1.40
2018-06-13T13:44:48.687Z,1.07
2018-06-13T13:47:18.052Z,1.23
2018-06-13T13:49:46.810Z,1.10
2018-06-13T13:52:16.601Z,1.90
2018-06-13T13:54:45.935Z,1.57
2018-06-13T13:57:15.447Z,1.40
2018-06-13T13:59:44.529Z,1.50
2018-06-13T14:02:13.364Z,2.13
2018-06-13T14:04:42.663Z,1.20
2018-06-13T14:07:11.497Z,1.60
2018-06-13T14:09:40.331Z,2.60
2018-06-13T14:12:09.585Z,1.43
2018-06-13T14:14:38.665Z,1.40
2018-06-13T14:17:07.490Z,1.47
2018-06-13T14:19:36.456Z,1.40
2018-06-13T14:22:06.047Z,2.20
2018-06-13T14:24:34.837Z,1.90
2018-06-13T14:27:04.415Z,1.60
2018-06-13T14:29:33.930Z,1.40
2018-06-13T14:32:03.196Z,1.80
2018-06-13T14:34:32.602Z,2.90
2018-06-13T14:37:02.043Z,1.60
2018-06-13T14:39:31.706Z,1.40
2018-06-13T14:42:00.967Z,1.40
2018-06-13T14:44:30.137Z,1.90
2018-06-13T14:46:58.978Z,1.43
2018-06-13T14:49:28.485Z,1.30
2018-06-13T14:51:57.661Z,1.47
2018-06-13T14:54:26.633Z,1.70
2018-06-13T14:56:55.519Z,1.43
2018-06-13T14:59:24.363Z,1.83
2018-06-13T15:01:53.390Z,1.77
2018-06-13T15:04:33.594Z,1.87
2018-06-13T15:07:04.030Z,2.00
2018-06-13T15:09:33.568Z,1.60
2018-06-13T15:12:02.703Z,2.27
2018-06-13T15:14:31.551Z,1.57
2018-06-13T15:17:00.490Z,2.03
2018-06-13T15:19:29.682Z,1.73
2018-06-13T15:21:58.559Z,1.50
2018-06-13T15:24:27.856Z,3.90
2018-06-13T15:26:56.682Z,1.67
2018-06-13T15:29:25.850Z,2.00
2018-06-13T15:31:55.319Z,1.80
2018-06-13T15:34:24.760Z,2.07
2018-06-13T15:36:53.971Z,2.20
2018-06-13T15:39:23.573Z,1.87
2018-06-13T15:41:52.777Z,2.10
2018-06-13T15:44:21.646Z,1.60
2018-06-13T15:46:51.276Z,2.70
2018-06-13T15:49:20.854Z,2.07
2018-06-13T15:51:50.490Z,1.90
2018-06-13T15:54:19.383Z,2.00
2018-06-13T15:56:48.604Z,2.53
2018-06-13T15:59:17.900Z,2.30
2018-06-13T16:01:47.126Z,2.47
2018-06-13T16:04:16.374Z,1.97
2018-06-13T16:06:45.260Z,2.70
2018-06-13T16:09:14.634Z,2.70
2018-06-13T16:11:43.505Z,2.10
2018-06-13T16:14:12.669Z,2.37
2018-06-13T16:16:41.547Z,2.57
2018-06-13T16:19:10.423Z,2.30
2018-06-13T16:21:39.476Z,3.07
2018-06-13T16:24:08.935Z,2.37
2018-06-13T16:26:37.788Z,2.37
2018-06-13T16:29:07.294Z,2.53
2018-06-13T16:31:36.291Z,2.30
2018-06-13T16:34:05.181Z,2.27
2018-06-13T16:36:34.662Z,1.50
2018-06-13T16:39:04.467Z,1.80
2018-06-13T16:41:33.241Z,2.50
2018-06-13T16:44:02.356Z,2.70
2018-06-13T16:46:31.765Z,2.47
2018-06-13T16:49:01.869Z,1.90
2018-06-13T16:51:41.674Z,1.73
2018-06-13T16:54:15.740Z,2.10
2018-06-13T16:56:45.244Z,2.73
2018-06-13T16:59:14.380Z,3.63
2018-06-13T17:01:44.176Z,3.07
2018-06-13T17:04:13.003Z,3.17
2018-06-13T17:06:41.901Z,2.97
2018-06-13T17:09:10.716Z,2.50
2018-06-13T17:11:39.475Z,3.30
2018-06-13T17:14:08.316Z,2.80
2018-06-13T17:16:37.685Z,2.47
2018-06-13T17:19:07.084Z,2.90
2018-06-13T17:21:35.952Z,3.10
2018-06-13T17:24:04.800Z,5.23
2018-06-13T17:26:33.595Z,3.30
2018-06-13T17:29:04.612Z,3.07
2018-06-13T17:31:33.691Z,2.67
2018-06-13T17:34:03.019Z,2.70
2018-06-13T17:36:32.167Z,2.70
2018-06-13T17:39:01.036Z,2.60
2018-06-13T17:41:30.487Z,2.67
2018-06-13T17:44:00.433Z,2.13
2018-06-13T17:46:29.543Z,2.10
2018-06-13T17:48:58.469Z,2.47
2018-06-13T17:51:27.672Z,2.47
2018-06-13T17:53:57.195Z,2.50
2018-06-13T17:56:26.629Z,2.30
2018-06-13T17:58:55.494Z,2.90
2018-06-13T18:01:24.957Z,2.57
2018-06-13T18:03:53.952Z,2.90
2018-06-13T18:06:23.353Z,1.93
2018-06-13T18:08:52.116Z,3.10
2018-06-13T18:11:21.014Z,3.70
2018-06-13T18:13:50.159Z,3.37
2018-06-13T18:16:19.511Z,3.30
2018-06-13T18:18:48.706Z,4.00
2018-06-13T18:21:17.799Z,3.80
2018-06-13T18:23:46.615Z,2.43
2018-06-13T18:26:15.504Z,3.17
2018-06-13T18:28:45.131Z,3.20
2018-06-13T18:31:13.951Z,2.37
2018-06-13T18:33:42.787Z,2.60
2018-06-13T18:36:11.871Z,3.63
2018-06-13T18:38:40.984Z,2.37
2018-06-13T18:41:10.095Z,2.67
2018-06-13T18:43:38.951Z,3.33
2018-06-13T18:46:07.770Z,3.90
2018-06-13T18:48:36.775Z,3.80
2018-06-13T18:51:06.153Z,3.60
2018-06-13T18:53:35.348Z,3.70
2018-06-13T18:56:04.429Z,2.60
2018-06-13T18:58:33.606Z,2.87
2018-06-13T19:01:02.577Z,3.63
2018-06-13T19:03:31.692Z,2.40
2018-06-13T19:06:00.963Z,3.10
2018-06-13T19:08:30.331Z,3.00
2018-06-13T19:13:46.713Z,2.57
2018-06-13T19:16:15.744Z,2.50
2018-06-13T19:18:44.986Z,2.77
2018-06-13T19:21:14.029Z,2.97
2018-06-13T19:23:43.559Z,3.53
2018-06-13T19:26:12.668Z,3.17
2018-06-13T19:28:41.613Z,2.80
2018-06-13T19:31:11.000Z,3.07
2018-06-13T19:33:40.165Z,2.50
2018-06-13T19:36:09.526Z,2.67
2018-06-13T19:38:38.494Z,2.60
2018-06-13T19:41:07.359Z,3.80
2018-06-13T19:43:38.884Z,2.87
2018-06-13T19:46:08.479Z,3.10
2018-06-13T19:48:42.855Z,3.10
2018-06-13T19:51:11.725Z,2.70
2018-06-13T19:53:46.763Z,3.03
2018-06-13T19:56:17.996Z,2.27
2018-06-13T19:58:47.194Z,2.40
2018-06-13T20:01:16.380Z,3.57
2018-06-13T20:03:50.562Z,3.40
2018-06-13T20:06:19.336Z,3.13
2018-06-13T20:08:48.448Z,2.83
2018-06-13T20:11:17.754Z,2.83
2018-06-13T20:13:52.028Z,2.63
2018-06-13T20:16:37.719Z,2.80
2018-06-13T20:19:11.876Z,3.50
2018-06-13T20:21:41.454Z,2.93
2018-06-13T20:24:10.283Z,2.50
2018-06-13T20:26:45.137Z,2.50
2018-06-13T20:29:19.607Z,3.57
2018-06-13T20:31:49.550Z,2.80
2018-06-13T20:34:18.648Z,2.50
2018-06-13T20:36:47.880Z,2.87
2018-06-13T20:39:16.836Z,2.87
2018-06-13T20:41:45.947Z,3.30
2018-06-13T20:44:15.009Z,3.90
2018-06-13T20:46:44.165Z,3.47
2018-06-13T20:49:13.246Z,2.90
2018-06-13T20:51:42.981Z,3.30
2018-06-13T20:54:12.488Z,3.00
2018-06-13T20:56:41.318Z,3.37
2018-06-13T20:59:10.217Z,3.67
2018-06-13T21:01:39.091Z,3.40
2018-06-13T21:04:07.911Z,2.90
2018-06-13T21:06:36.963Z,3.60
2018-06-13T21:09:08.292Z,3.37
2018-06-13T21:11:38.412Z,3.50
2018-06-13T21:14:07.266Z,3.47
2018-06-13T21:16:36.360Z,3.60
2018-06-13T21:19:05.177Z,3.40
2018-06-13T21:21:33.980Z,3.00
2018-06-13T21:24:03.101Z,3.23
2018-06-13T21:26:32.025Z,4.03
2018-06-13T21:29:01.268Z,3.70
2018-06-13T21:31:30.083Z,3.03
2018-06-13T21:33:59.549Z,3.43
2018-06-13T21:36:28.631Z,3.40
2018-06-13T21:38:58.029Z,3.30
2018-06-13T21:41:27.402Z,3.60
2018-06-13T21:43:56.469Z,3.33
2018-06-13T21:46:25.497Z,3.87
2018-06-13T21:48:54.288Z,3.67
2018-06-13T21:51:23.753Z,3.83
2018-06-13T21:53:52.578Z,3.80
2018-06-13T21:56:21.699Z,4.07
2018-06-13T21:58:50.767Z,3.63
2018-06-13T22:01:19.555Z,3.27
2018-06-13T22:03:48.421Z,3.90
2018-06-13T22:06:18.003Z,3.87
2018-06-13T22:08:47.200Z,3.80
2018-06-13T22:11:16.492Z,4.10
2018-06-13T22:13:45.818Z,4.30
2018-06-13T22:16:14.859Z,3.67
2018-06-13T22:18:44.718Z,4.23
2018-06-13T22:21:13.788Z,4.73
2018-06-13T22:23:43.405Z,3.80
2018-06-13T22:26:12.176Z,3.70
2018-06-13T22:28:41.806Z,3.83
2018-06-13T22:31:11.412Z,4.20
2018-06-13T22:33:40.782Z,3.93
2018-06-13T22:36:10.281Z,4.93
2018-06-13T22:38:40.166Z,4.40
2018-06-13T22:41:09.737Z,4.43
2018-06-13T22:43:38.798Z,4.50
2018-06-13T22:46:07.672Z,5.93
2018-06-13T22:48:36.811Z,4.70
2018-06-13T22:51:05.838Z,4.43
2018-06-13T22:53:35.025Z,6.07
2018-06-13T22:56:05.052Z,4.80
2018-06-13T22:58:35.247Z,5.30
2018-06-13T23:01:06.677Z,5.30
2018-06-13T23:03:36.386Z,4.90
2018-06-13T23:06:06.753Z,5.53
2018-06-13T23:08:37.775Z,4.37
2018-06-13T23:11:06.701Z,4.50
2018-06-13T23:13:35.882Z,5.80
2018-06-13T23:16:05.076Z,5.60
2018-06-13T23:18:34.295Z,5.20
2018-06-13T23:21:03.183Z,5.10
2018-06-13T23:23:31.935Z,5.40
2018-06-13T23:26:00.982Z,6.83
2018-06-13T23:28:30.011Z,5.17
2018-06-13T23:30:59.637Z,5.10
2018-06-13T23:33:28.823Z,5.60
2018-06-13T23:35:57.704Z,5.30
2018-06-13T23:38:27.556Z,5.70
2018-06-13T23:40:57.242Z,6.60
2018-06-13T23:43:26.467Z,6.20
2018-06-13T23:45:55.503Z,6.20
2018-06-13T23:48:26.425Z,5.83
2018-06-13T23:50:56.466Z,5.67
2018-06-13T23:53:26.171Z,5.90
2018-06-13T23:55:55.293Z,6.70
2018-06-13T23:58:24.600Z,5.73
